createdAt,value
2019-01-11T00:00:31.850Z,97.07
2019-01-11T00:01:31.837Z,97.17
2019-01-11T00:02:31.827Z,96.96
2019-01-11T00:03:31.817Z,96.96
2019-01-11T00:04:31.807Z,96.92
2019-01-11T00:05:31.797Z,96.82
2019-01-11T00:06:31.786Z,96.60
2019-01-11T00:07:31.781Z,96.50
2019-01-11T00:08:31.766Z,96.60
2019-01-11T00:09:31.751Z,96.60
2019-01-11T00:10:31.743Z,96.60
2019-01-11T00:16:46.885Z,96.29
2019-01-11T00:17:46.873Z,96.08
2019-01-11T00:18:46.860Z,95.98
2019-01-11T00:19:46.852Z,95.77
2019-01-11T00:20:46.841Z,95.88
2019-01-11T00:21:46.832Z,95.98
2019-01-11T00:22:46.819Z,95.88
2019-01-11T00:23:46.814Z,95.88
2019-01-11T00:24:46.796Z,95.83
2019-01-11T00:25:46.786Z,95.72
2019-01-11T00:26:46.775Z,95.77
2019-01-11T00:27:46.764Z,95.77
2019-01-11T00:28:46.752Z,95.88
2019-01-11T00:29:46.742Z,96.19
2019-01-11T00:30:46.730Z,96.50
2019-01-11T00:31:46.720Z,96.50
2019-01-11T00:32:46.709Z,96.71
2019-01-11T00:33:46.701Z,96.60
2019-01-11T00:34:46.688Z,96.60
2019-01-11T00:35:46.675Z,96.71
2019-01-11T00:36:46.665Z,96.60
2019-01-11T00:37:46.654Z,96.82
2019-01-11T00:38:46.643Z,96.71
2019-01-11T00:39:46.636Z,96.71
2019-01-11T00:40:46.621Z,96.60
2019-01-11T00:41:46.619Z,96.71
2019-01-11T00:42:46.600Z,97.02
2019-01-11T00:43:46.589Z,97.13
2019-01-11T00:44:46.578Z,97.23
2019-01-11T00:45:46.569Z,97.23
2019-01-11T00:46:46.556Z,97.33
2019-01-11T00:47:46.543Z,97.33
2019-01-11T00:48:46.534Z,97.33
2019-01-11T00:49:46.527Z,97.23
2019-01-11T00:50:46.523Z,96.71
2019-01-11T00:51:46.501Z,97.07
2019-01-11T00:52:46.490Z,97.38
2019-01-11T00:53:46.481Z,97.44
2019-01-11T00:54:46.470Z,97.07
2019-01-11T00:55:46.460Z,97.07
2019-01-11T00:56:46.446Z,97.48
2019-01-11T00:57:46.436Z,97.69
2019-01-11T00:58:46.428Z,97.69
2019-01-11T00:59:46.415Z,97.65
2019-01-11T01:00:46.407Z,97.54
2019-01-11T01:01:46.392Z,97.44
2019-01-11T01:02:46.380Z,97.44
2019-01-11T01:03:46.372Z,97.33
2019-01-11T01:04:46.359Z,97.23
2019-01-11T01:05:46.347Z,97.23
2019-01-11T01:06:46.338Z,96.92
2019-01-11T01:07:46.328Z,96.71
2019-01-11T01:08:46.317Z,96.71
2019-01-11T01:09:46.303Z,96.71
2019-01-11T01:10:46.294Z,96.66
2019-01-11T01:11:46.283Z,96.66
2019-01-11T01:12:46.276Z,96.77
2019-01-11T01:13:46.262Z,96.56
2019-01-11T01:14:46.250Z,96.25
2019-01-11T01:15:46.241Z,95.94
2019-01-11T01:16:46.229Z,96.04
2019-01-11T01:17:46.218Z,96.14
2019-01-11T01:18:46.205Z,96.25
2019-01-11T01:19:46.195Z,96.25
2019-01-11T01:20:46.185Z,96.35
2019-01-11T01:21:46.174Z,96.35
2019-01-11T01:22:46.165Z,96.35
2019-01-11T01:23:46.151Z,96.35
2019-01-11T01:24:46.141Z,96.35
2019-01-11T01:25:46.131Z,96.45
2019-01-11T01:26:46.120Z,96.45
2019-01-11T01:27:46.115Z,96.35
2019-01-11T01:28:46.105Z,96.35
2019-01-11T01:29:46.087Z,96.20
2019-01-11T01:30:46.079Z,96.10
2019-01-11T01:31:46.067Z,96.10
2019-01-11T01:32:46.061Z,95.89
2019-01-11T01:33:46.045Z,95.68
2019-01-11T01:34:46.034Z,95.58
2019-01-11T01:35:46.024Z,95.47
2019-01-11T01:36:46.011Z,95.58
2019-01-11T01:37:46.000Z,95.58
2019-01-11T01:38:45.989Z,95.47
2019-01-11T01:39:45.985Z,95.26
2019-01-11T01:40:45.966Z,95.26
2019-01-11T01:41:45.956Z,95.16
2019-01-11T01:42:45.946Z,95.16
2019-01-11T01:43:45.936Z,95.06
2019-01-11T01:44:45.925Z,95.58
2019-01-11T01:45:45.913Z,95.78
2019-01-11T01:46:45.902Z,95.89
2019-01-11T01:47:45.892Z,95.89
2019-01-11T01:48:45.882Z,95.89
2019-01-11T01:49:45.870Z,95.99
2019-01-11T01:50:45.860Z,95.99
2019-01-11T01:51:45.849Z,96.10
2019-01-11T01:52:45.838Z,96.10
2019-01-11T01:53:45.826Z,95.99
2019-01-11T01:54:45.814Z,96.10
2019-01-11T01:55:45.809Z,95.78
2019-01-11T01:56:45.792Z,95.78
2019-01-11T01:57:45.781Z,95.89
2019-01-11T01:58:45.769Z,95.99
2019-01-11T01:59:45.760Z,95.89
2019-01-11T02:00:45.750Z,96.14
2019-01-11T02:01:45.738Z,96.45
2019-01-11T02:02:45.728Z,96.66
2019-01-11T02:03:45.720Z,96.77
2019-01-11T02:04:45.706Z,96.62
2019-01-11T02:05:45.695Z,96.66
2019-01-11T02:06:45.683Z,96.77
2019-01-11T02:07:45.674Z,96.66
2019-01-11T02:08:45.662Z,96.77
2019-01-11T02:09:45.653Z,96.87
2019-01-11T02:10:45.641Z,96.97
2019-01-11T02:11:45.628Z,96.83
2019-01-11T02:12:45.620Z,96.72
2019-01-11T02:13:45.608Z,96.62
2019-01-11T02:14:45.598Z,96.56
2019-01-11T02:15:45.587Z,96.87
2019-01-11T02:16:45.575Z,97.08
2019-01-11T02:17:45.565Z,97.08
2019-01-11T02:18:45.555Z,97.19
2019-01-11T02:19:45.544Z,97.29
2019-01-11T02:20:45.544Z,97.29
2019-01-11T02:21:45.519Z,97.50
2019-01-11T02:22:45.510Z,97.39
2019-01-11T02:23:45.502Z,97.29
2019-01-11T02:24:45.486Z,97.39
2019-01-11T02:25:46.297Z,97.39
2019-01-11T02:26:45.466Z,97.39
2019-01-11T02:27:45.454Z,97.35
2019-01-11T02:28:45.443Z,97.29
2019-01-11T02:29:45.433Z,97.19
2019-01-11T02:30:45.423Z,97.19
2019-01-11T02:31:45.414Z,96.87
2019-01-11T02:32:52.032Z,96.97
2019-01-11T02:34:06.574Z,97.39
2019-01-11T02:35:06.560Z,97.39
2019-01-11T02:36:06.552Z,97.39
2019-01-11T02:37:06.543Z,97.29
2019-01-11T02:38:06.532Z,97.29
2019-01-11T02:39:06.522Z,97.60
2019-01-11T02:40:06.512Z,97.50
2019-01-11T02:41:06.509Z,97.60
2019-01-11T02:42:06.485Z,97.39
2019-01-11T02:43:06.482Z,97.29
2019-01-11T02:44:06.466Z,97.39
2019-01-11T02:45:06.452Z,97.60
2019-01-11T02:46:06.445Z,97.71
2019-01-11T02:47:06.436Z,97.71
2019-01-11T02:48:06.423Z,97.71
2019-01-11T02:49:06.410Z,97.81
2019-01-11T02:50:06.400Z,97.71
2019-01-11T02:51:06.391Z,97.71
2019-01-11T02:52:06.380Z,97.71
2019-01-11T02:53:06.385Z,97.50
2019-01-11T02:54:06.357Z,97.39
2019-01-11T02:55:06.346Z,97.29
2019-01-11T02:56:06.335Z,97.08
2019-01-11T02:57:06.325Z,96.97
2019-01-11T02:58:06.315Z,97.08
2019-01-11T02:59:06.303Z,97.65
2019-01-11T03:00:06.294Z,97.71
2019-01-11T03:01:06.283Z,97.85
2019-01-11T03:02:06.270Z,97.75
2019-01-11T03:03:06.263Z,97.96
2019-01-11T03:04:06.248Z,98.07
2019-01-11T03:05:06.239Z,98.17
2019-01-11T03:06:06.227Z,98.02
2019-01-11T03:07:06.217Z,97.81
2019-01-11T03:08:06.212Z,97.71
2019-01-11T03:09:06.196Z,97.75
2019-01-11T03:10:06.184Z,97.91
2019-01-11T03:11:06.175Z,97.85
2019-01-11T03:12:06.164Z,97.96
2019-01-11T03:13:06.163Z,97.96
2019-01-11T03:14:06.141Z,97.81
2019-01-11T03:15:06.133Z,97.85
2019-01-11T03:16:06.120Z,97.85
2019-01-11T03:17:06.111Z,97.96
2019-01-11T03:18:06.104Z,98.07
2019-01-11T03:19:06.092Z,98.27
2019-01-11T03:20:06.078Z,98.38
2019-01-11T03:21:06.067Z,98.48
2019-01-11T03:22:06.064Z,98.38
2019-01-11T03:23:06.044Z,98.38
2019-01-11T03:24:06.035Z,98.48
2019-01-11T03:25:06.028Z,98.17
2019-01-11T03:26:06.011Z,98.27
2019-01-11T03:27:05.999Z,98.38
2019-01-11T03:28:05.991Z,98.48
2019-01-11T03:29:05.978Z,98.17
2019-01-11T03:30:05.973Z,98.27
2019-01-11T03:31:05.966Z,98.27
2019-01-11T03:32:05.962Z,98.17
2019-01-11T03:33:05.938Z,98.22
2019-01-11T03:34:05.925Z,98.12
2019-01-11T03:35:05.913Z,97.81
2019-01-11T03:36:05.902Z,97.60
2019-01-11T03:37:05.912Z,97.50
2019-01-11T03:38:05.882Z,97.39
2019-01-11T03:39:05.878Z,97.39
2019-01-11T03:40:05.862Z,97.50
2019-01-11T03:41:05.848Z,97.54
2019-01-11T03:42:05.837Z,97.96
2019-01-11T03:43:05.828Z,98.02
2019-01-11T03:44:05.818Z,98.07
2019-01-11T03:45:05.806Z,98.07
2019-01-11T03:46:05.794Z,98.07
2019-01-11T03:47:05.784Z,98.07
2019-01-11T03:48:05.775Z,98.07
2019-01-11T03:49:05.764Z,98.07
2019-01-11T03:50:05.755Z,98.27
2019-01-11T03:51:05.742Z,98.38
2019-01-11T03:52:05.731Z,98.17
2019-01-11T03:53:05.721Z,98.27
2019-01-11T03:54:05.712Z,98.17
2019-01-11T03:55:05.697Z,98.07
2019-01-11T03:56:05.687Z,98.38
2019-01-11T03:57:05.676Z,98.48
2019-01-11T03:58:05.665Z,98.38
2019-01-11T03:59:05.653Z,98.69
2019-01-11T04:00:05.642Z,98.79
2019-01-11T04:01:05.634Z,98.48
2019-01-11T04:02:05.628Z,98.48
2019-01-11T04:03:05.648Z,98.48
2019-01-11T04:04:05.618Z,98.59
2019-01-11T04:05:05.599Z,98.48
2019-01-11T04:06:05.579Z,98.07
2019-01-11T04:07:05.567Z,98.17
2019-01-11T04:08:05.559Z,97.96
2019-01-11T04:09:05.548Z,98.07
2019-01-11T04:10:05.537Z,98.07
2019-01-11T04:11:05.525Z,98.17
2019-01-11T04:12:05.516Z,98.38
2019-01-11T04:13:05.508Z,98.27
2019-01-11T04:14:05.492Z,98.17
2019-01-11T04:15:05.481Z,98.27
2019-01-11T04:16:05.470Z,98.38
2019-01-11T04:17:05.463Z,98.27
2019-01-11T04:18:05.448Z,98.27
2019-01-11T04:19:05.438Z,98.48
2019-01-11T04:20:05.428Z,98.48
2019-01-11T04:21:05.420Z,98.27
2019-01-11T04:22:05.406Z,98.27
2019-01-11T04:23:05.396Z,98.27
2019-01-11T04:24:05.384Z,98.27
2019-01-11T04:25:05.375Z,98.27
2019-01-11T04:26:05.363Z,98.17
2019-01-11T04:27:05.351Z,98.17
2019-01-11T04:28:05.353Z,98.38
2019-01-11T04:29:05.330Z,98.48
2019-01-11T04:30:05.323Z,98.38
2019-01-11T04:31:05.309Z,98.38
2019-01-11T04:32:05.301Z,98.38
2019-01-11T04:33:05.290Z,98.48
2019-01-11T04:34:05.276Z,98.79
2019-01-11T04:35:05.269Z,98.69
2019-01-11T04:36:05.256Z,98.27
2019-01-11T04:37:05.246Z,98.27
2019-01-11T04:38:05.234Z,98.48
2019-01-11T04:39:05.224Z,98.48
2019-01-11T04:40:05.213Z,98.48
2019-01-11T04:41:05.203Z,98.59
2019-01-11T04:42:05.195Z,98.59
2019-01-11T04:43:05.180Z,98.38
2019-01-11T04:44:05.173Z,98.38
2019-01-11T04:45:05.159Z,98.38
2019-01-11T04:46:05.149Z,98.27
2019-01-11T04:47:05.136Z,98.27
2019-01-11T04:48:05.138Z,98.12
2019-01-11T04:49:05.117Z,97.96
2019-01-11T04:50:09.335Z,98.27
2019-01-11T04:51:05.097Z,98.22
2019-01-11T04:52:05.086Z,98.22
2019-01-11T04:53:05.072Z,98.22
2019-01-11T04:54:05.064Z,98.12
2019-01-11T04:55:05.059Z,98.07
2019-01-11T04:56:05.040Z,98.17
2019-01-11T04:57:05.029Z,98.27
2019-01-11T04:58:05.018Z,98.27
2019-01-11T04:59:05.014Z,98.48
2019-01-11T05:00:04.999Z,98.38
2019-01-11T05:01:04.990Z,98.38
2019-01-11T05:02:04.973Z,98.59
2019-01-11T05:03:04.965Z,98.79
2019-01-11T05:04:04.957Z,98.79
2019-01-11T05:05:04.944Z,98.69
2019-01-11T05:06:04.932Z,98.59
2019-01-11T05:07:04.922Z,98.69
2019-01-11T05:08:04.912Z,98.79
2019-01-11T05:09:04.899Z,98.90
2019-01-11T05:10:04.893Z,99.11
2019-01-11T05:11:04.878Z,99.21
2019-01-11T05:12:04.867Z,99.00
2019-01-11T05:13:04.855Z,98.90
2019-01-11T05:14:04.849Z,99.00
2019-01-11T05:15:04.836Z,98.90
2019-01-11T05:16:04.825Z,98.69
2019-01-11T05:17:04.813Z,98.69
2019-01-11T05:18:04.803Z,98.75
2019-01-11T05:19:04.791Z,98.96
2019-01-11T05:20:04.795Z,98.75
2019-01-11T05:21:04.768Z,98.59
2019-01-11T05:22:04.760Z,98.69
2019-01-11T05:23:04.747Z,98.90
2019-01-11T05:24:04.741Z,98.79
2019-01-11T05:25:04.729Z,99.00
2019-01-11T05:26:04.717Z,99.00
2019-01-11T05:27:04.706Z,99.11
2019-01-11T05:28:04.695Z,99.32
2019-01-11T05:29:04.685Z,99.11
2019-01-11T05:30:04.674Z,99.11
2019-01-11T05:31:04.665Z,99.21
2019-01-11T05:32:04.650Z,99.42
2019-01-11T05:33:04.642Z,99.42
2019-01-11T05:34:04.629Z,99.32
2019-01-11T05:35:04.622Z,99.32
2019-01-11T05:36:04.610Z,99.42
2019-01-11T05:37:04.597Z,99.21
2019-01-11T05:38:04.588Z,99.21
2019-01-11T05:39:04.581Z,99.42
2019-01-11T05:40:04.566Z,99.32
2019-01-11T05:41:04.555Z,99.42
2019-01-11T05:42:04.541Z,99.42
2019-01-11T05:43:04.533Z,99.63
2019-01-11T05:44:05.336Z,99.63
2019-01-11T05:45:04.509Z,99.63
2019-01-11T05:46:04.501Z,99.63
2019-01-11T05:47:04.492Z,99.73
2019-01-11T05:48:04.479Z,99.73
2019-01-11T05:49:04.475Z,99.73
2019-01-11T05:50:04.455Z,99.84
2019-01-11T05:51:04.444Z,99.84
2019-01-11T05:52:04.434Z,99.94
2019-01-11T05:53:04.426Z,99.90
2019-01-11T05:54:04.415Z,99.90
2019-01-11T05:55:04.402Z,99.90
2019-01-11T05:56:04.392Z,99.59
2019-01-11T05:57:04.382Z,99.53
2019-01-11T05:58:04.374Z,99.63
2019-01-11T05:59:04.358Z,99.59
2019-01-11T06:00:04.349Z,99.48
2019-01-11T06:01:04.340Z,99.48
2019-01-11T06:02:04.332Z,99.59
2019-01-11T06:03:04.317Z,99.59
2019-01-11T06:04:04.305Z,99.37
2019-01-11T06:05:04.297Z,99.37
2019-01-11T06:06:04.284Z,99.37
2019-01-11T06:07:04.273Z,99.37
2019-01-11T06:08:04.264Z,99.16
2019-01-11T06:09:04.252Z,99.06
2019-01-11T06:10:04.240Z,99.06
2019-01-11T06:11:04.229Z,98.96
2019-01-11T06:12:04.223Z,98.96
2019-01-11T06:13:04.211Z,99.06
2019-01-11T06:14:04.196Z,99.16
2019-01-11T06:15:04.188Z,99.27
2019-01-11T06:16:04.176Z,99.27
2019-01-11T06:17:04.172Z,99.37
2019-01-11T06:18:04.157Z,99.16
2019-01-11T06:19:04.146Z,98.75
2019-01-11T06:20:04.136Z,98.75
2019-01-11T06:21:04.124Z,98.85
2019-01-11T06:22:04.113Z,98.96
2019-01-11T06:23:04.107Z,99.06
2019-01-11T06:24:04.091Z,98.91
2019-01-11T06:25:04.081Z,98.81
2019-01-11T06:26:04.072Z,98.54
2019-01-11T06:27:04.060Z,98.65
2019-01-11T06:28:04.048Z,98.85
2019-01-11T06:29:04.039Z,98.81
2019-01-11T06:30:04.027Z,98.65
2019-01-11T06:31:04.017Z,98.65
2019-01-11T06:32:04.007Z,98.65
2019-01-11T06:33:03.995Z,98.75
2019-01-11T06:34:05.130Z,98.85
2019-01-11T06:35:03.976Z,98.75
2019-01-11T06:36:03.961Z,98.85
2019-01-11T06:37:03.951Z,98.96
2019-01-11T06:38:03.940Z,98.85
2019-01-11T06:39:03.929Z,98.85
2019-01-11T06:40:03.919Z,98.96
2019-01-11T06:41:03.907Z,98.96
2019-01-11T06:42:03.897Z,98.91
2019-01-11T06:43:03.887Z,98.91
2019-01-11T06:44:03.877Z,98.81
2019-01-11T06:45:03.867Z,98.70
2019-01-11T06:46:03.854Z,98.60
2019-01-11T06:47:03.844Z,98.49
2019-01-11T06:48:03.833Z,98.29
2019-01-11T06:49:03.824Z,98.08
2019-01-11T06:50:03.811Z,97.93
2019-01-11T06:51:03.803Z,97.72
2019-01-11T06:52:03.792Z,97.61
2019-01-11T06:53:03.782Z,97.10
2019-01-11T06:54:03.767Z,96.83
2019-01-11T06:55:03.759Z,97.03
2019-01-11T06:56:03.749Z,97.14
2019-01-11T06:57:03.737Z,97.24
2019-01-11T06:58:03.725Z,97.24
2019-01-11T06:59:03.713Z,97.14
2019-01-11T07:00:03.703Z,97.24
2019-01-11T07:01:03.693Z,97.46
2019-01-11T07:02:03.682Z,97.29
2019-01-11T07:03:03.671Z,97.29
2019-01-11T07:04:03.662Z,97.60
2019-01-11T07:05:03.655Z,97.60
2019-01-11T07:06:03.641Z,97.60
2019-01-11T07:07:03.628Z,97.60
2019-01-11T07:08:03.617Z,97.60
2019-01-11T07:09:03.607Z,97.56
2019-01-11T07:10:03.599Z,97.39
2019-01-11T07:11:03.587Z,97.46
2019-01-11T07:12:03.577Z,97.56
2019-01-11T07:13:03.563Z,97.19
2019-01-11T07:14:03.554Z,97.19
2019-01-11T07:15:03.543Z,97.19
2019-01-11T07:16:03.532Z,97.39
2019-01-11T07:17:03.521Z,97.39
2019-01-11T07:18:03.516Z,97.46
2019-01-11T07:19:03.506Z,97.46
2019-01-11T07:20:05.710Z,97.56
2019-01-11T07:21:03.477Z,97.56
2019-01-11T07:22:03.473Z,97.56
2019-01-11T07:23:03.455Z,97.46
2019-01-11T07:24:03.446Z,97.35
2019-01-11T07:25:03.437Z,97.03
2019-01-11T07:26:03.427Z,96.83
2019-01-11T07:27:03.414Z,96.52
2019-01-11T07:28:03.404Z,96.62
2019-01-11T07:29:03.392Z,96.72
2019-01-11T07:30:03.380Z,96.72
2019-01-11T07:31:03.370Z,96.58
2019-01-11T07:32:03.360Z,96.47
2019-01-11T07:33:03.348Z,96.37
2019-01-11T07:34:03.340Z,96.47
2019-01-11T07:35:03.332Z,96.47
2019-01-11T07:36:03.318Z,96.26
2019-01-11T07:37:03.306Z,96.16
2019-01-11T07:38:03.293Z,96.16
2019-01-11T07:39:03.284Z,96.16
2019-01-11T07:40:03.277Z,96.16
2019-01-11T07:41:03.261Z,96.05
2019-01-11T07:42:03.253Z,95.95
2019-01-11T07:43:03.239Z,95.95
2019-01-11T07:44:03.227Z,95.84
2019-01-11T07:45:03.223Z,95.84
2019-01-11T07:46:03.209Z,96.05
2019-01-11T07:47:03.195Z,96.26
2019-01-11T07:48:03.186Z,96.37
2019-01-11T07:49:03.175Z,96.37
2019-01-11T07:50:03.164Z,96.47
2019-01-11T07:51:03.154Z,96.37
2019-01-11T07:52:03.142Z,96.26
2019-01-11T07:53:03.132Z,96.16
2019-01-11T07:54:03.119Z,96.16
2019-01-11T07:55:03.110Z,96.26
2019-01-11T07:56:03.101Z,96.47
2019-01-11T07:57:03.089Z,96.47
2019-01-11T07:58:03.079Z,96.58
2019-01-11T07:59:03.066Z,96.58
2019-01-11T08:00:03.058Z,96.47
2019-01-11T08:01:03.047Z,96.47
2019-01-11T08:02:03.036Z,96.32
2019-01-11T08:03:03.024Z,96.32
2019-01-11T08:04:03.025Z,96.32
2019-01-11T08:05:03.003Z,96.16
2019-01-11T08:06:03.008Z,96.05
2019-01-11T08:07:02.986Z,96.26
2019-01-11T08:08:02.970Z,96.31
2019-01-11T08:09:02.969Z,96.83
2019-01-11T08:10:02.966Z,97.14
2019-01-11T08:11:02.953Z,97.66
2019-01-11T08:12:02.925Z,98.18
2019-01-11T08:13:02.923Z,98.18
2019-01-11T08:14:02.924Z,98.39
2019-01-11T08:15:02.951Z,98.60
2019-01-11T08:16:02.910Z,98.70
2019-01-11T08:17:02.877Z,98.91
2019-01-11T08:18:02.863Z,99.02
2019-01-11T08:19:02.850Z,99.12
2019-01-11T08:20:02.841Z,99.12
2019-01-11T08:21:02.831Z,99.23
2019-01-11T08:22:02.819Z,99.12
2019-01-11T08:23:02.810Z,98.97
2019-01-11T08:24:02.799Z,98.60
2019-01-11T08:25:02.787Z,98.49
2019-01-11T08:26:02.777Z,98.60
2019-01-11T08:27:02.765Z,98.60
2019-01-11T08:28:02.755Z,98.70
2019-01-11T08:29:02.744Z,98.81
2019-01-11T08:30:02.732Z,98.76
2019-01-11T08:31:02.722Z,98.66
2019-01-11T08:32:02.712Z,98.55
2019-01-11T08:33:02.701Z,98.35
2019-01-11T08:34:02.692Z,98.35
2019-01-11T08:35:02.680Z,98.45
2019-01-11T08:36:02.674Z,98.45
2019-01-11T08:37:02.658Z,98.45
2019-01-11T08:38:02.649Z,98.35
2019-01-11T08:39:02.637Z,98.09
2019-01-11T08:40:02.636Z,97.78
2019-01-11T08:41:02.616Z,97.57
2019-01-11T08:42:02.606Z,97.57
2019-01-11T08:43:02.598Z,97.57
2019-01-11T08:44:02.585Z,97.47
2019-01-11T08:45:02.571Z,97.36
2019-01-11T08:46:02.563Z,97.36
2019-01-11T08:47:02.554Z,97.61
2019-01-11T08:48:02.540Z,97.61
2019-01-11T08:49:02.545Z,97.93
2019-01-11T08:50:02.520Z,98.04
2019-01-11T08:51:02.986Z,97.93
2019-01-11T08:52:02.503Z,97.93
2019-01-11T08:53:02.488Z,98.24
2019-01-11T08:54:02.476Z,98.29
2019-01-11T08:55:02.465Z,98.60
2019-01-11T08:56:08.276Z,98.81
2019-01-11T08:57:23.627Z,99.02
2019-01-11T08:58:23.615Z,99.23
2019-01-11T08:59:23.604Z,99.33
2019-01-11T09:00:23.595Z,99.74
2019-01-11T09:01:23.586Z,99.85
2019-01-11T09:02:23.575Z,99.74
2019-01-11T09:03:23.563Z,99.99
2019-01-11T09:04:23.552Z,99.99
2019-01-11T09:05:23.542Z,99.81
2019-01-11T09:06:23.531Z,99.60
2019-01-11T09:07:23.521Z,99.29
2019-01-11T09:08:23.509Z,99.23
2019-01-11T09:09:23.497Z,99.43
2019-01-11T09:10:24.795Z,99.85
2019-01-11T09:11:23.483Z,99.81
2019-01-11T09:12:23.466Z,99.70
2019-01-11T09:13:23.455Z,99.81
2019-01-11T09:14:23.447Z,99.91
2019-01-11T09:15:23.436Z,99.81
2019-01-11T09:16:23.422Z,99.60
2019-01-11T09:17:23.421Z,99.64
2019-01-11T09:18:23.403Z,99.54
2019-01-11T09:19:23.392Z,99.91
2019-01-11T09:20:23.383Z,99.91
2019-01-11T09:21:23.372Z,99.99
2019-01-11T09:22:23.362Z,99.99
2019-01-11T09:23:23.351Z,99.99
2019-01-11T09:24:23.359Z,99.99
2019-01-11T09:25:23.373Z,99.99
2019-01-11T09:26:23.341Z,99.97
2019-01-11T09:27:23.307Z,99.97
2019-01-11T09:28:23.296Z,99.76
2019-01-11T09:29:23.286Z,99.65
2019-01-11T09:30:23.332Z,99.45
2019-01-11T09:31:23.267Z,99.65
2019-01-11T09:32:23.254Z,99.13
2019-01-11T09:33:23.243Z,99.18
2019-01-11T09:34:23.233Z,99.34
2019-01-11T09:35:23.221Z,99.49
2019-01-11T09:36:23.211Z,99.49
2019-01-11T09:37:23.200Z,99.49
2019-01-11T09:38:23.190Z,99.49
2019-01-11T09:39:23.180Z,99.49
2019-01-11T09:40:23.170Z,99.70
2019-01-11T09:41:23.160Z,99.76
2019-01-11T09:42:23.149Z,99.49
2019-01-11T09:43:23.137Z,99.60
2019-01-11T09:44:23.127Z,99.70
2019-01-11T09:45:23.117Z,99.76
2019-01-11T09:46:23.104Z,99.86
2019-01-11T09:47:23.096Z,99.97
2019-01-11T09:48:23.085Z,99.86
2019-01-11T09:49:23.075Z,99.76
2019-01-11T09:50:23.061Z,99.76
2019-01-11T09:51:23.052Z,99.45
2019-01-11T09:52:23.040Z,99.34
2019-01-11T09:53:23.030Z,99.34
2019-01-11T09:54:23.020Z,99.45
2019-01-11T09:55:23.007Z,99.55
2019-01-11T09:56:23.000Z,99.65
2019-01-11T09:57:22.989Z,99.55
2019-01-11T09:58:22.975Z,99.34
2019-01-11T09:59:22.964Z,99.34
2019-01-11T10:00:22.973Z,99.45
2019-01-11T10:01:22.945Z,99.34
2019-01-11T10:02:22.939Z,99.45
2019-01-11T10:03:22.923Z,99.45
2019-01-11T10:04:22.911Z,99.40
2019-01-11T10:05:22.900Z,99.40
2019-01-11T10:06:22.892Z,99.20
2019-01-11T10:07:23.066Z,99.09
2019-01-11T10:08:22.881Z,99.09
2019-01-11T10:09:22.862Z,99.09
2019-01-11T10:10:22.851Z,99.30
2019-01-11T10:11:22.838Z,99.20
2019-01-11T10:12:22.834Z,99.30
2019-01-11T10:13:22.822Z,99.30
2019-01-11T10:14:22.807Z,99.30
2019-01-11T10:15:22.795Z,99.30
2019-01-11T10:16:23.744Z,99.30
2019-01-11T10:17:22.771Z,99.30
2019-01-11T10:18:22.761Z,99.15
2019-01-11T10:19:22.752Z,98.84
2019-01-11T10:20:22.742Z,98.46
2019-01-11T10:21:24.033Z,98.46
2019-01-11T10:22:22.719Z,98.57
2019-01-11T10:23:22.707Z,98.57
2019-01-11T10:24:22.698Z,98.73
2019-01-11T10:25:22.689Z,98.84
2019-01-11T10:26:22.675Z,98.84
2019-01-11T10:27:22.686Z,98.69
2019-01-11T10:28:22.654Z,98.48
2019-01-11T10:29:22.643Z,98.48
2019-01-11T10:30:22.631Z,97.85
2019-01-11T10:31:22.628Z,97.71
2019-01-11T10:32:22.612Z,97.29
2019-01-11T10:33:22.602Z,96.30
2019-01-11T10:34:22.589Z,96.50
2019-01-11T10:35:22.578Z,96.71
2019-01-11T10:36:22.569Z,96.92
2019-01-11T10:37:22.555Z,97.33
2019-01-11T10:38:22.545Z,97.33
2019-01-11T10:39:22.534Z,97.44
2019-01-11T10:40:22.525Z,97.54
2019-01-11T10:41:22.516Z,97.54
2019-01-11T10:42:22.502Z,97.54
2019-01-11T10:43:22.492Z,97.44
2019-01-11T10:44:22.483Z,97.44
2019-01-11T10:45:22.469Z,97.44
2019-01-11T10:46:22.458Z,97.54
2019-01-11T10:47:22.451Z,97.65
2019-01-11T10:48:22.442Z,97.65
2019-01-11T10:49:22.428Z,97.44
2019-01-11T10:50:22.417Z,97.54
2019-01-11T10:51:28.040Z,97.65
2019-01-11T10:52:22.393Z,97.85
2019-01-11T10:53:22.396Z,97.96
2019-01-11T10:54:22.373Z,98.06
2019-01-11T10:55:22.363Z,97.85
2019-01-11T10:56:22.353Z,97.75
2019-01-11T10:57:22.339Z,97.75
2019-01-11T10:58:22.331Z,97.91
2019-01-11T10:59:22.341Z,98.12
2019-01-11T11:00:22.310Z,98.02
2019-01-11T11:01:22.299Z,97.66
2019-01-11T11:02:22.286Z,97.35
2019-01-11T11:03:22.276Z,97.03
2019-01-11T11:04:22.317Z,96.72
2019-01-11T11:05:22.254Z,96.52
2019-01-11T11:06:22.242Z,96.31
2019-01-11T11:07:22.233Z,95.69
2019-01-11T11:08:22.221Z,95.69
2019-01-11T11:09:22.210Z,95.79
2019-01-11T11:10:22.200Z,95.89
2019-01-11T11:11:22.192Z,95.79
2019-01-11T11:12:22.179Z,96.00
2019-01-11T11:13:22.171Z,96.31
2019-01-11T11:14:22.159Z,96.52
2019-01-11T11:15:22.148Z,96.62
2019-01-11T11:16:22.136Z,96.72
2019-01-11T11:17:22.125Z,97.14
2019-01-11T11:18:22.115Z,96.72
2019-01-11T11:19:22.104Z,96.72
2019-01-11T11:20:22.093Z,97.14
2019-01-11T11:21:22.082Z,97.24
2019-01-11T11:22:22.072Z,97.35
2019-01-11T11:23:22.059Z,97.35
2019-01-11T11:24:22.048Z,97.45
2019-01-11T11:25:22.036Z,97.29
2019-01-11T11:26:22.031Z,97.29
2019-01-11T11:27:22.016Z,97.29
2019-01-11T11:28:22.009Z,97.50
2019-01-11T11:29:21.996Z,97.50
2019-01-11T11:30:21.985Z,97.81
2019-01-11T11:31:21.975Z,97.97
2019-01-11T11:32:21.963Z,98.08
2019-01-11T11:33:21.954Z,98.08
2019-01-11T11:34:21.947Z,97.35
2019-01-11T11:35:21.930Z,97.35
2019-01-11T11:36:21.919Z,97.45
2019-01-11T11:37:21.909Z,97.03
2019-01-11T11:38:21.898Z,97.30
2019-01-11T11:39:21.888Z,97.30
2019-01-11T11:40:21.878Z,96.89
2019-01-11T11:41:21.872Z,96.68
2019-01-11T11:42:21.856Z,96.74
2019-01-11T11:43:21.843Z,96.64
2019-01-11T11:44:21.832Z,96.22
2019-01-11T11:45:21.825Z,96.33
2019-01-11T11:46:21.812Z,96.43
2019-01-11T11:47:21.803Z,96.33
2019-01-11T11:48:21.793Z,95.81
2019-01-11T11:49:21.783Z,96.16
2019-01-11T11:50:21.771Z,96.37
2019-01-11T11:51:21.758Z,96.74
2019-01-11T11:52:21.752Z,96.85
2019-01-11T11:53:21.739Z,96.85
2019-01-11T11:54:21.727Z,96.53
2019-01-11T11:55:21.718Z,96.53
2019-01-11T11:56:21.706Z,96.64
2019-01-11T11:57:21.696Z,96.43
2019-01-11T11:58:21.687Z,96.39
2019-01-11T11:59:21.672Z,95.60
2019-01-11T12:00:21.663Z,96.02
2019-01-11T12:01:21.657Z,96.33
2019-01-11T12:02:21.646Z,96.53
2019-01-11T12:03:21.635Z,96.12
2019-01-11T12:04:21.623Z,96.12
2019-01-11T12:05:21.608Z,96.02
2019-01-11T12:06:21.598Z,96.43
2019-01-11T12:07:21.591Z,96.95
2019-01-11T12:08:21.576Z,96.80
2019-01-11T12:09:21.573Z,96.60
2019-01-11T12:10:21.557Z,96.60
2019-01-11T12:11:21.547Z,96.39
2019-01-11T12:12:21.536Z,96.74
2019-01-11T12:13:21.524Z,96.53
2019-01-11T12:14:21.514Z,97.05
2019-01-11T12:15:21.502Z,97.63
2019-01-11T12:16:21.493Z,97.74
2019-01-11T12:17:21.481Z,97.53
2019-01-11T12:18:21.474Z,97.32
2019-01-11T12:19:21.459Z,97.27
2019-01-11T12:20:21.448Z,97.27
2019-01-11T12:21:21.439Z,96.65
2019-01-11T12:22:21.428Z,95.92
2019-01-11T12:23:21.418Z,96.18
2019-01-11T12:24:21.406Z,96.08
2019-01-11T12:25:21.394Z,96.22
2019-01-11T12:26:21.385Z,96.60
2019-01-11T12:27:21.373Z,97.22
2019-01-11T12:28:21.364Z,97.53
2019-01-11T12:29:21.352Z,97.17
2019-01-11T12:30:21.391Z,96.86
2019-01-11T12:31:21.334Z,96.96
2019-01-11T12:32:21.320Z,97.07
2019-01-11T12:33:21.309Z,96.86
2019-01-11T12:34:21.299Z,96.55
2019-01-11T12:35:21.290Z,95.72
2019-01-11T12:36:21.279Z,95.61
2019-01-11T12:37:21.272Z,96.34
2019-01-11T12:38:21.258Z,96.75
2019-01-11T12:39:21.245Z,96.86
2019-01-11T12:40:21.234Z,96.86
2019-01-11T12:41:21.226Z,96.55
2019-01-11T12:42:21.215Z,96.34
2019-01-11T12:43:21.202Z,96.44
2019-01-11T12:44:21.193Z,96.50
2019-01-11T12:45:21.183Z,96.40
2019-01-11T12:46:21.173Z,96.19
2019-01-11T12:47:21.159Z,95.88
2019-01-11T12:48:21.148Z,95.67
2019-01-11T12:49:21.140Z,96.09
2019-01-11T12:50:21.129Z,96.09
2019-01-11T12:51:21.117Z,95.61
2019-01-11T12:52:21.108Z,96.13
2019-01-11T12:53:21.096Z,96.44
2019-01-11T12:54:21.090Z,97.07
2019-01-11T12:55:21.077Z,97.27
2019-01-11T12:56:21.066Z,97.17
2019-01-11T12:57:21.055Z,97.22
2019-01-11T12:58:21.044Z,97.74